createdAt,value
2023-05-19T00:00:02.576Z,0
2023-05-19T00:05:02.579Z,0.004
2023-05-19T00:10:08.249Z,0
2023-05-19T00:15:02.675Z,0
2023-05-19T00:20:02.629Z,0.122
2023-05-19T00:25:02.669Z,0.128
2023-05-19T00:30:02.686Z,0.127
2023-05-19T00:35:02.669Z,0.131
2023-05-19T00:40:11.744Z,0.128
2023-05-19T00:45:03.208Z,0.114
2023-05-19T00:50:02.773Z,0.128
2023-05-19T00:55:02.750Z,0.16
2023-05-19T01:00:02.840Z,0.162
2023-05-19T01:05:02.863Z,0.139
2023-05-19T01:10:07.969Z,0.115
2023-05-19T01:15:01.153Z,0.114
2023-05-19T01:20:01.158Z,0.12
2023-05-19T01:25:01.076Z,0.13
2023-05-19T01:30:01.132Z,0.128
2023-05-19T01:35:01.123Z,0.029
2023-05-19T01:40:08.493Z,0
2023-05-19T01:45:01.192Z,0
2023-05-19T01:50:01.175Z,0
2023-05-19T01:55:01.162Z,0
2023-05-19T02:00:01.257Z,0.06
2023-05-19T02:05:01.314Z,0.13
2023-05-19T02:10:11.399Z,0.13
2023-05-19T02:15:01.299Z,0.12
2023-05-19T02:20:01.328Z,0.117
2023-05-19T02:25:01.395Z,0.157
2023-05-19T02:30:01.367Z,0.166
2023-05-19T02:35:01.380Z,0.17200000000000001
2023-05-19T02:40:07.856Z,0.139
2023-05-19T02:45:01.223Z,0.134
2023-05-19T02:50:01.140Z,0.137
2023-05-19T02:55:01.218Z,0.134
2023-05-19T03:00:01.515Z,0.131
2023-05-19T03:05:01.255Z,0.133
2023-05-19T03:10:13.573Z,0.295
2023-05-19T03:15:01.231Z,34.572
2023-05-19T03:20:01.292Z,37.088
2023-05-19T03:25:01.175Z,43.002
2023-05-19T03:30:01.235Z,56.64
2023-05-19T03:35:01.286Z,60.786
2023-05-19T03:40:11.695Z,88.766
2023-05-19T03:45:01.284Z,108.497
2023-05-19T03:50:01.175Z,129.39000000000001
2023-05-19T03:55:01.266Z,148.302
2023-05-19T04:00:01.282Z,166.50900000000001
2023-05-19T04:05:01.201Z,184.648
2023-05-19T04:10:08.100Z,200.404
2023-05-19T04:15:01.350Z,217.715
2023-05-19T04:20:01.369Z,233.208
2023-05-19T04:25:01.253Z,248.734
2023-05-19T04:30:01.284Z,263.103
2023-05-19T04:35:01.297Z,277.901
2023-05-19T04:40:08.428Z,293.988
2023-05-19T04:45:01.431Z,323.728
2023-05-19T04:50:01.366Z,337.916
2023-05-19T04:55:01.374Z,350.984
2023-05-19T05:00:01.467Z,364.074
2023-05-19T05:05:01.431Z,371.77
2023-05-19T05:10:09.166Z,382.033
2023-05-19T05:15:01.351Z,401.458
2023-05-19T05:20:01.424Z,437.598
2023-05-19T05:25:01.349Z,491.954
2023-05-19T05:30:01.302Z,563.828
2023-05-19T05:35:01.329Z,646.265
2023-05-19T05:40:08.224Z,745.04
2023-05-19T05:45:01.375Z,857.437
2023-05-19T05:50:01.343Z,987.357
2023-05-19T05:55:01.369Z,1119.893
2023-05-19T06:00:01.328Z,1268.362
2023-05-19T06:05:01.340Z,1430.531
2023-05-19T06:10:12.590Z,1598.121
2023-05-19T06:15:01.451Z,1775.7
2023-05-19T06:20:01.331Z,1963.19
2023-05-19T06:25:01.360Z,2159.361
2023-05-19T06:30:01.434Z,2335.524
2023-05-19T06:35:01.348Z,2529.46
2023-05-19T06:40:07.746Z,2728.016
2023-05-19T06:45:01.440Z,2971.384
2023-05-19T06:50:01.388Z,3083.219
2023-05-19T06:55:01.408Z,3245.071
2023-05-19T07:00:01.400Z,3424.312
2023-05-19T07:05:01.378Z,3536.848
2023-05-19T07:10:08.903Z,3652.3540000000003
2023-05-19T07:15:01.526Z,3915.186
2023-05-19T07:20:01.524Z,4054.237
2023-05-19T07:25:01.474Z,4128.129
2023-05-19T07:30:01.564Z,4307.677
2023-05-19T07:35:01.602Z,4428.842
2023-05-19T07:40:11.396Z,4616.1050000000005
2023-05-19T07:45:01.594Z,4764.83
2023-05-19T07:50:01.626Z,4993.276
2023-05-19T07:55:01.433Z,5224.8730000000005
2023-05-19T08:00:02.064Z,5391.226
2023-05-19T08:05:01.450Z,5500.71
2023-05-19T08:10:07.733Z,5619.396
2023-05-19T08:15:02.010Z,5687.1320000000005
2023-05-19T08:20:01.620Z,5486.943
2023-05-19T08:25:01.473Z,5279.076
2023-05-19T08:30:01.466Z,5430.618
2023-05-19T08:35:01.497Z,5327.177
2023-05-19T08:40:08.120Z,5693.9800000000005
2023-05-19T08:45:01.560Z,6031.602
2023-05-19T08:50:01.576Z,6105.904
2023-05-19T08:55:01.478Z,6372.02
2023-05-19T09:00:01.501Z,6464.115
2023-05-19T09:05:01.603Z,6296.526
2023-05-19T09:10:07.889Z,6525.879
2023-05-19T09:15:01.569Z,6635.54
2023-05-19T09:20:01.545Z,6328.746
2023-05-19T09:25:01.584Z,6252.889
2023-05-19T09:30:01.654Z,6028.127
2023-05-19T09:35:01.760Z,5741.028
2023-05-19T09:40:09.665Z,6285.193
2023-05-19T09:45:01.829Z,6923.650000000001
2023-05-19T09:50:01.525Z,7238.166
2023-05-19T09:55:01.482Z,7238.442
2023-05-19T10:00:01.489Z,7242.066
2023-05-19T10:05:01.681Z,7256.991
2023-05-19T10:10:06.863Z,7262.887
2023-05-19T10:15:01.530Z,7361.6630000000005
2023-05-19T10:20:01.566Z,7622.8150000000005
2023-05-19T10:25:01.513Z,7683.14
2023-05-19T10:30:01.568Z,7636.234
2023-05-19T10:35:01.568Z,7216.161
2023-05-19T10:40:08.365Z,7394.455
2023-05-19T10:45:01.580Z,7516.978
2023-05-19T10:50:01.625Z,7615.626
2023-05-19T10:55:01.657Z,7461.424
2023-05-19T11:00:01.732Z,7085.7
2023-05-19T11:05:01.571Z,6743.497
2023-05-19T11:10:11.426Z,6945.54
2023-05-19T11:15:01.583Z,7144.647
2023-05-19T11:20:01.664Z,7214.631
2023-05-19T11:25:01.568Z,7289.763
2023-05-19T11:30:01.597Z,7206.0470000000005
2023-05-19T11:35:01.635Z,7111.488
2023-05-19T11:40:08.130Z,7933.847
2023-05-19T11:45:01.640Z,7929.642
2023-05-19T11:50:01.671Z,7798.147
2023-05-19T11:55:01.937Z,6634.4310000000005
2023-05-19T12:00:01.820Z,7281.129
2023-05-19T12:05:01.741Z,7605.703
2023-05-19T12:10:08.024Z,7698.705
2023-05-19T12:15:01.639Z,7745.735000000001
2023-05-19T12:20:01.644Z,7292.087
2023-05-19T12:25:01.675Z,7722.2300000000005
2023-05-19T12:30:01.688Z,8059.115
2023-05-19T12:35:01.765Z,8389.961
2023-05-19T12:40:07.980Z,8172.775000000001
2023-05-19T12:45:03.194Z,8367.825
2023-05-19T12:50:01.837Z,8286.676
2023-05-19T12:55:01.948Z,8243.032000000001
2023-05-19T13:00:01.877Z,8106.809
2023-05-19T13:05:01.653Z,7744.5380000000005
2023-05-19T13:10:13.992Z,8151.548
2023-05-19T13:15:01.701Z,7148.95
2023-05-19T13:20:01.720Z,6149.406
2023-05-19T13:25:01.689Z,5474.185
2023-05-19T13:30:01.805Z,4006.581
2023-05-19T13:35:01.649Z,6081.845
2023-05-19T13:40:08.646Z,7885.26
2023-05-19T13:45:01.842Z,5607.974
2023-05-19T13:50:01.670Z,3770.2980000000002
2023-05-19T13:55:01.724Z,3085.312
2023-05-19T14:00:03.986Z,5265.924
2023-05-19T14:05:01.735Z,6273.429
2023-05-19T14:10:13.528Z,6212.189
2023-05-19T14:15:01.738Z,6862.842000000001
2023-05-19T14:20:01.708Z,6169.384
2023-05-19T14:25:01.754Z,5773.142
2023-05-19T14:30:01.720Z,6658.125
2023-05-19T14:35:01.802Z,6347.954
2023-05-19T14:40:13.499Z,6260.3640000000005
2023-05-19T14:45:01.913Z,5887.167
2023-05-19T14:50:01.842Z,5517.996
2023-05-19T14:55:01.779Z,5169.155
2023-05-19T15:00:01.866Z,4393.62
2023-05-19T15:05:01.752Z,5313.201
2023-05-19T15:10:11.181Z,5750.894
2023-05-19T15:15:01.852Z,5659.567
2023-05-19T15:20:01.971Z,5434.165
2023-05-19T15:25:01.806Z,4754.423
2023-05-19T15:30:01.781Z,4888.444
2023-05-19T15:35:01.810Z,4674.045
2023-05-19T15:40:14.734Z,4458.973
2023-05-19T15:45:02.023Z,4030.569
2023-05-19T15:50:01.985Z,4179.089
2023-05-19T15:55:02.306Z,4102.878
2023-05-19T16:00:01.820Z,4044.414
2023-05-19T16:05:01.871Z,3793.534
2023-05-19T16:10:08.593Z,3582
2023-05-19T16:15:01.918Z,3349.724
2023-05-19T16:20:01.829Z,3208.282
2023-05-19T16:25:01.817Z,3050.129
2023-05-19T16:30:01.856Z,2874.974
2023-05-19T16:35:01.965Z,2727.474
2023-05-19T16:40:12.617Z,2551.044
2023-05-19T16:45:01.967Z,2390.931
2023-05-19T16:50:02.083Z,2213.067
2023-05-19T16:55:02.106Z,2042.307
2023-05-19T17:00:02.047Z,1885.257
2023-05-19T17:05:01.877Z,1712.767
2023-05-19T17:10:08.704Z,1537.56
2023-05-19T17:15:01.859Z,1386.034
2023-05-19T17:20:01.911Z,1234.625
2023-05-19T17:25:01.872Z,1080.654
2023-05-19T17:30:01.872Z,937.123
2023-05-19T17:35:01.943Z,788.893
2023-05-19T17:40:13.947Z,654.718
2023-05-19T17:45:01.934Z,535.547
2023-05-19T17:50:01.972Z,441.252
2023-05-19T17:55:01.972Z,356.207
2023-05-19T18:00:01.930Z,285.747
2023-05-19T18:05:02.049Z,232.314
2023-05-19T18:10:09.079Z,191.933
2023-05-19T18:15:02.119Z,160.729
2023-05-19T18:20:02.145Z,137.451
2023-05-19T18:25:01.919Z,115.822
2023-05-19T18:30:01.971Z,94.229
2023-05-19T18:35:01.968Z,74.206
2023-05-19T18:40:12.793Z,54.910000000000004
2023-05-19T18:45:02.175Z,35.838
2023-05-19T18:50:02.034Z,42.13
2023-05-19T18:55:01.953Z,31.204
2023-05-19T19:00:01.971Z,31.981
2023-05-19T19:05:02.063Z,16.533
2023-05-19T19:10:08.591Z,0.111
2023-05-19T19:15:02.041Z,0.122
2023-05-19T19:20:01.985Z,0.12
2023-05-19T19:25:02.068Z,0.151
2023-05-19T19:30:02.018Z,0.23900000000000002
2023-05-19T19:35:02.045Z,0.209
2023-05-19T19:40:13.937Z,0.192
2023-05-19T19:45:02.281Z,0.161
2023-05-19T19:50:02.188Z,0.13
2023-05-19T19:55:02.191Z,0.13
2023-05-19T20:00:02.031Z,0.129
2023-05-19T20:05:01.965Z,0.117
2023-05-19T20:10:08.463Z,0.11800000000000001
2023-05-19T20:15:02.048Z,0.123
2023-05-19T20:20:02.055Z,0.167
2023-05-19T20:25:01.974Z,0.164
2023-05-19T20:30:02.111Z,0.161
2023-05-19T20:35:02.034Z,0.114
2023-05-19T20:40:08.564Z,0.11800000000000001
2023-05-19T20:45:02.063Z,0.131
2023-05-19T20:50:02.118Z,0.134
2023-05-19T20:55:02.101Z,0.131
2023-05-19T21:00:02.152Z,0.117
2023-05-19T21:05:02.265Z,0.152
2023-05-19T21:10:11.879Z,0.167
2023-05-19T21:15:02.137Z,0.167
2023-05-19T21:20:02.112Z,0.14200000000000002
2023-05-19T21:25:02.090Z,0.138
2023-05-19T21:30:02.082Z,0.098
2023-05-19T21:35:02.051Z,0.002
2023-05-19T21:40:09.038Z,0
2023-05-19T21:45:02.246Z,0
2023-05-19T21:50:02.161Z,0.009000000000000001
2023-05-19T21:55:02.138Z,0
2023-05-19T22:00:02.254Z,0
2023-05-19T22:05:02.183Z,0
2023-05-19T22:10:09.089Z,0.019
2023-05-19T22:15:02.219Z,0.018000000000000002
2023-05-19T22:20:02.250Z,0.10200000000000001
2023-05-19T22:25:02.312Z,0.017
2023-05-19T22:30:02.304Z,0.001
2023-05-19T22:35:02.329Z,0.002
2023-05-19T22:40:14.159Z,0.024
2023-05-19T22:45:02.359Z,0.022
2023-05-19T22:50:02.318Z,0.009000000000000001
2023-05-19T22:55:02.290Z,0
2023-05-19T23:00:02.169Z,0.006
2023-05-19T23:05:02.119Z,0.007
2023-05-19T23:10:09.809Z,0.011
2023-05-19T23:15:02.209Z,0.02
2023-05-19T23:20:02.845Z,0.02
2023-05-19T23:25:02.170Z,0.01
2023-05-19T23:30:02.275Z,0.01
2023-05-19T23:35:02.195Z,0.019
2023-05-19T23:40:12.671Z,0
2023-05-19T23:45:02.242Z,0
2023-05-19T23:50:02.264Z,0
2023-05-19T23:55:02.231Z,0.001
